createdAt,value
2023-03-12T00:00:25.000Z,0
2023-03-12T00:01:40.000Z,0
2023-03-12T00:02:56.000Z,0
2023-03-12T00:04:13.000Z,0
2023-03-12T00:05:29.000Z,0
2023-03-12T00:06:45.000Z,0
2023-03-12T00:08:01.000Z,0
2023-03-12T00:09:17.000Z,0
2023-03-12T00:10:33.000Z,0
2023-03-12T00:11:50.000Z,0
2023-03-12T00:13:06.000Z,0
2023-03-12T00:14:22.000Z,0
2023-03-12T00:15:38.000Z,0
2023-03-12T00:16:54.000Z,0
2023-03-12T00:18:10.000Z,0
2023-03-12T00:19:26.000Z,0
2023-03-12T00:20:42.000Z,0
2023-03-12T00:21:58.000Z,0
2023-03-12T00:23:14.000Z,0
2023-03-12T00:24:31.000Z,0
2023-03-12T00:25:47.000Z,0
2023-03-12T00:27:03.000Z,0
2023-03-12T00:28:19.000Z,0
2023-03-12T00:29:35.000Z,0
2023-03-12T00:30:52.000Z,0
2023-03-12T00:32:08.000Z,0
2023-03-12T00:33:24.000Z,0
2023-03-12T00:34:39.000Z,0
2023-03-12T00:35:55.000Z,0
2023-03-12T00:37:12.000Z,0
2023-03-12T00:38:28.000Z,0
2023-03-12T00:39:44.000Z,0
2023-03-12T00:41:00.000Z,0
2023-03-12T00:42:16.000Z,0
2023-03-12T00:43:32.000Z,0
2023-03-12T00:44:49.000Z,0
2023-03-12T00:46:05.000Z,0
2023-03-12T00:47:21.000Z,0
2023-03-12T00:48:37.000Z,0
2023-03-12T00:49:53.000Z,0
2023-03-12T00:51:09.000Z,0
2023-03-12T00:52:25.000Z,0
2023-03-12T00:53:41.000Z,0
2023-03-12T00:54:57.000Z,0
2023-03-12T00:56:13.000Z,0
2023-03-12T00:57:30.000Z,0
2023-03-12T00:58:46.000Z,0
2023-03-12T01:00:02.000Z,0
2023-03-12T01:01:18.000Z,0
2023-03-12T01:02:34.000Z,0
2023-03-12T01:03:51.000Z,0
2023-03-12T01:05:07.000Z,0
2023-03-12T01:06:23.000Z,0
2023-03-12T01:07:38.000Z,0
2023-03-12T01:08:54.000Z,0
2023-03-12T01:10:10.000Z,0
2023-03-12T01:11:27.000Z,0
2023-03-12T01:12:43.000Z,0
2023-03-12T01:13:59.000Z,0
2023-03-12T01:15:15.000Z,0
2023-03-12T01:16:31.000Z,0
2023-03-12T01:17:48.000Z,0
2023-03-12T01:19:04.000Z,0
2023-03-12T01:20:20.000Z,0
2023-03-12T01:21:36.000Z,0
2023-03-12T01:22:52.000Z,0
2023-03-12T01:24:08.000Z,0
2023-03-12T01:25:24.000Z,0
2023-03-12T01:26:40.000Z,0
2023-03-12T01:27:56.000Z,0
2023-03-12T01:29:12.000Z,0
2023-03-12T01:30:29.000Z,0
2023-03-12T01:31:45.000Z,0
2023-03-12T01:33:01.000Z,0
2023-03-12T01:34:17.000Z,0
2023-03-12T01:35:33.000Z,0
2023-03-12T01:36:50.000Z,0
2023-03-12T01:38:06.000Z,0
2023-03-12T01:39:22.000Z,0
2023-03-12T01:40:37.000Z,0
2023-03-12T01:41:53.000Z,0
2023-03-12T01:43:09.000Z,0
2023-03-12T01:44:26.000Z,0
2023-03-12T01:45:42.000Z,0
2023-03-12T01:46:58.000Z,0
2023-03-12T01:48:14.000Z,0
2023-03-12T01:49:30.000Z,0
2023-03-12T01:50:47.000Z,0
2023-03-12T01:52:03.000Z,0
2023-03-12T01:53:19.000Z,0
2023-03-12T01:54:35.000Z,0
2023-03-12T01:55:51.000Z,0
2023-03-12T01:57:07.000Z,0
2023-03-12T01:58:23.000Z,0
2023-03-12T01:59:39.000Z,0
2023-03-12T02:00:55.000Z,0
2023-03-12T02:02:11.000Z,0
2023-03-12T02:03:28.000Z,0
2023-03-12T02:04:43.000Z,0
2023-03-12T02:05:59.000Z,0
2023-03-12T02:07:15.000Z,0
2023-03-12T02:08:31.000Z,0
2023-03-12T02:09:48.000Z,0
2023-03-12T02:11:04.000Z,0
2023-03-12T02:12:20.000Z,0
2023-03-12T02:13:36.000Z,0
2023-03-12T02:14:52.000Z,0
2023-03-12T02:16:09.000Z,0
2023-03-12T02:17:25.000Z,0
2023-03-12T02:18:41.000Z,0
2023-03-12T02:19:57.000Z,0
2023-03-12T02:21:12.000Z,0
2023-03-12T02:22:28.000Z,0
2023-03-12T02:23:45.000Z,0
2023-03-12T02:25:01.000Z,0
2023-03-12T02:26:17.000Z,0
2023-03-12T02:27:33.000Z,0
2023-03-12T02:28:49.000Z,0
2023-03-12T02:30:06.000Z,0
2023-03-12T02:31:22.000Z,0
2023-03-12T02:32:38.000Z,0
2023-03-12T02:33:54.000Z,0
2023-03-12T02:35:10.000Z,0
2023-03-12T02:36:27.000Z,0
2023-03-12T02:37:42.000Z,0
2023-03-12T02:38:58.000Z,0
2023-03-12T02:40:14.000Z,0
2023-03-12T02:41:30.000Z,0
2023-03-12T02:42:47.000Z,0
2023-03-12T02:44:03.000Z,0
2023-03-12T02:45:19.000Z,0
2023-03-12T02:46:35.000Z,0
2023-03-12T02:47:51.000Z,0
2023-03-12T02:49:08.000Z,0
2023-03-12T02:50:24.000Z,0
2023-03-12T02:51:40.000Z,0
2023-03-12T02:52:56.000Z,0
2023-03-12T02:54:11.000Z,0
2023-03-12T02:55:27.000Z,0
2023-03-12T02:56:44.000Z,0
2023-03-12T02:58:00.000Z,0
2023-03-12T02:59:16.000Z,0
2023-03-12T03:00:32.000Z,0
2023-03-12T03:01:48.000Z,0
2023-03-12T03:03:05.000Z,0
2023-03-12T03:04:21.000Z,0
2023-03-12T03:05:37.000Z,0
2023-03-12T03:06:53.000Z,0
2023-03-12T03:08:09.000Z,0
2023-03-12T03:09:26.000Z,0
2023-03-12T03:10:41.000Z,0
2023-03-12T03:11:57.000Z,0
2023-03-12T03:13:13.000Z,0
2023-03-12T03:14:29.000Z,0
2023-03-12T03:15:46.000Z,0
2023-03-12T03:17:02.000Z,0
2023-03-12T03:18:18.000Z,0
2023-03-12T03:19:34.000Z,0
2023-03-12T03:20:50.000Z,0
2023-03-12T03:22:07.000Z,0
2023-03-12T03:23:23.000Z,0
2023-03-12T03:24:39.000Z,0
2023-03-12T03:25:55.000Z,0
2023-03-12T03:27:10.000Z,0
2023-03-12T03:28:26.000Z,0
2023-03-12T03:29:43.000Z,0
2023-03-12T03:30:59.000Z,0
2023-03-12T03:32:15.000Z,0
2023-03-12T03:33:31.000Z,0
2023-03-12T03:34:47.000Z,0
2023-03-12T03:36:04.000Z,0
2023-03-12T03:37:20.000Z,0
2023-03-12T03:38:36.000Z,0
2023-03-12T03:39:52.000Z,0
2023-03-12T03:41:08.000Z,0
2023-03-12T03:42:25.000Z,0
2023-03-12T03:43:40.000Z,0
2023-03-12T03:44:56.000Z,0
2023-03-12T03:46:12.000Z,0
2023-03-12T03:47:28.000Z,0
2023-03-12T03:48:45.000Z,0
2023-03-12T03:50:01.000Z,0
2023-03-12T03:51:17.000Z,0
2023-03-12T03:52:33.000Z,0
2023-03-12T03:53:49.000Z,0
2023-03-12T03:55:06.000Z,0
2023-03-12T03:56:22.000Z,0
2023-03-12T03:57:38.000Z,0
2023-03-12T03:58:54.000Z,0
2023-03-12T04:00:09.000Z,0
2023-03-12T04:01:25.000Z,0
2023-03-12T04:02:42.000Z,0
2023-03-12T04:03:58.000Z,0
2023-03-12T04:05:14.000Z,0
2023-03-12T04:06:30.000Z,0
2023-03-12T04:07:46.000Z,0
2023-03-12T04:09:03.000Z,0
2023-03-12T04:10:19.000Z,0
2023-03-12T04:11:35.000Z,0
2023-03-12T04:12:51.000Z,0
2023-03-12T04:14:07.000Z,0
2023-03-12T04:15:24.000Z,0
2023-03-12T04:16:39.000Z,0
2023-03-12T04:17:55.000Z,0
2023-03-12T04:19:11.000Z,0
2023-03-12T04:20:27.000Z,0
2023-03-12T04:21:44.000Z,0
2023-03-12T04:23:00.000Z,0
2023-03-12T04:24:16.000Z,0
2023-03-12T04:25:32.000Z,0
2023-03-12T04:26:48.000Z,0
2023-03-12T04:28:05.000Z,0
2023-03-12T04:29:21.000Z,0
2023-03-12T04:30:37.000Z,0
2023-03-12T04:31:53.000Z,0
2023-03-12T04:33:08.000Z,0
2023-03-12T04:34:24.000Z,0
2023-03-12T04:35:41.000Z,0
2023-03-12T04:36:57.000Z,0
2023-03-12T04:38:13.000Z,0
2023-03-12T04:39:29.000Z,0
2023-03-12T04:40:45.000Z,0
2023-03-12T04:42:02.000Z,0
2023-03-12T04:43:18.000Z,0
2023-03-12T04:44:34.000Z,0
2023-03-12T04:45:50.000Z,0
2023-03-12T04:47:06.000Z,0
2023-03-12T04:48:23.000Z,0
2023-03-12T04:49:38.000Z,0
2023-03-12T04:50:54.000Z,0
2023-03-12T04:52:10.000Z,0
2023-03-12T04:53:26.000Z,0
2023-03-12T04:54:43.000Z,0
2023-03-12T04:55:59.000Z,0
2023-03-12T04:57:15.000Z,0
2023-03-12T04:58:31.000Z,0
2023-03-12T04:59:47.000Z,0
2023-03-12T05:01:04.000Z,0
2023-03-12T05:02:20.000Z,0
2023-03-12T05:03:36.000Z,0
2023-03-12T05:04:52.000Z,0
2023-03-12T05:06:07.000Z,0
2023-03-12T05:07:23.000Z,0
2023-03-12T05:08:40.000Z,0
2023-03-12T05:09:56.000Z,0
2023-03-12T05:11:12.000Z,0
2023-03-12T05:12:28.000Z,0
2023-03-12T05:13:44.000Z,0
2023-03-12T05:15:01.000Z,0
2023-03-12T05:16:17.000Z,0
2023-03-12T05:17:33.000Z,0
2023-03-12T05:18:49.000Z,0
2023-03-12T05:20:05.000Z,4
2023-03-12T05:21:22.000Z,4
2023-03-12T05:22:37.000Z,0
2023-03-12T05:23:53.000Z,4
2023-03-12T05:25:09.000Z,0
2023-03-12T05:26:25.000Z,4
2023-03-12T05:27:42.000Z,4
2023-03-12T05:28:58.000Z,4
2023-03-12T05:30:14.000Z,4
2023-03-12T05:31:30.000Z,8
2023-03-12T05:32:46.000Z,12
2023-03-12T05:34:03.000Z,12
2023-03-12T05:35:19.000Z,16
2023-03-12T05:36:35.000Z,20
2023-03-12T05:37:51.000Z,24
2023-03-12T05:39:06.000Z,28
2023-03-12T05:40:22.000Z,36
2023-03-12T05:41:39.000Z,40
2023-03-12T05:42:55.000Z,52
2023-03-12T05:44:11.000Z,60
2023-03-12T05:45:27.000Z,72
2023-03-12T05:46:43.000Z,84
2023-03-12T05:48:00.000Z,96
2023-03-12T05:49:16.000Z,108
2023-03-12T05:50:32.000Z,124
2023-03-12T05:51:48.000Z,144
2023-03-12T05:53:04.000Z,156
2023-03-12T05:54:21.000Z,168
2023-03-12T05:55:36.000Z,192
2023-03-12T05:56:52.000Z,220
2023-03-12T05:58:08.000Z,244
2023-03-12T05:59:24.000Z,268
2023-03-12T06:00:41.000Z,308
2023-03-12T06:01:57.000Z,364
2023-03-12T06:03:13.000Z,428
2023-03-12T06:04:29.000Z,476
2023-03-12T06:05:45.000Z,508
2023-03-12T06:07:02.000Z,520
2023-03-12T06:08:18.000Z,528
2023-03-12T06:09:34.000Z,560
2023-03-12T06:10:50.000Z,628
2023-03-12T06:12:05.000Z,736
2023-03-12T06:13:21.000Z,908
2023-03-12T06:14:38.000Z,1128
2023-03-12T06:15:54.000Z,1348
2023-03-12T06:17:10.000Z,1476
2023-03-12T06:18:26.000Z,1588
2023-03-12T06:19:41.000Z,1684
2023-03-12T06:20:58.000Z,1760
2023-03-12T06:22:14.000Z,1808
2023-03-12T06:23:30.000Z,1788
2023-03-12T06:24:46.000Z,1624
2023-03-12T06:26:02.000Z,1444
2023-03-12T06:27:19.000Z,1284
2023-03-12T06:28:35.000Z,1244
2023-03-12T06:29:51.000Z,1244
2023-03-12T06:31:07.000Z,1248
2023-03-12T06:32:23.000Z,1276
2023-03-12T06:33:40.000Z,1280
2023-03-12T06:34:56.000Z,1292
2023-03-12T06:36:11.000Z,1324
2023-03-12T06:37:27.000Z,1376
2023-03-12T06:38:43.000Z,1436
2023-03-12T06:40:00.000Z,1480
2023-03-12T06:41:16.000Z,1540
2023-03-12T06:42:32.000Z,1644
2023-03-12T06:43:48.000Z,1948
2023-03-12T06:45:04.000Z,2392
2023-03-12T06:46:20.000Z,2940
2023-03-12T06:47:37.000Z,3344
2023-03-12T06:48:53.000Z,3540
2023-03-12T06:50:09.000Z,3544
2023-03-12T06:51:25.000Z,3380
2023-03-12T06:52:40.000Z,3288
2023-03-12T06:53:57.000Z,3124
2023-03-12T06:55:13.000Z,2904
2023-03-12T06:56:29.000Z,2588
2023-03-12T06:57:45.000Z,2196
2023-03-12T06:59:01.000Z,1940
2023-03-12T07:00:18.000Z,1664
2023-03-12T07:01:34.000Z,1344
2023-03-12T07:02:50.000Z,1120
2023-03-12T07:04:06.000Z,1036
2023-03-12T07:05:22.000Z,988
2023-03-12T07:06:39.000Z,1000
2023-03-12T07:07:55.000Z,1056
2023-03-12T07:09:10.000Z,1088
2023-03-12T07:10:26.000Z,1096
2023-03-12T07:11:42.000Z,1176
2023-03-12T07:12:59.000Z,1396
2023-03-12T07:14:15.000Z,1592
2023-03-12T07:15:31.000Z,1616
2023-03-12T07:16:47.000Z,1720
2023-03-12T07:18:03.000Z,2124
2023-03-12T07:19:20.000Z,2644
2023-03-12T07:20:36.000Z,3404
2023-03-12T07:21:52.000Z,3848
2023-03-12T07:23:08.000Z,3864
2023-03-12T07:24:24.000Z,4192
2023-03-12T07:25:39.000Z,4896
2023-03-12T07:26:56.000Z,5476
2023-03-12T07:28:12.000Z,6116
2023-03-12T07:29:28.000Z,6528
2023-03-12T07:30:44.000Z,6424
2023-03-12T07:32:00.000Z,6392
2023-03-12T07:33:17.000Z,5168
2023-03-12T07:34:33.000Z,3772
2023-03-12T07:35:49.000Z,3392
2023-03-12T07:37:05.000Z,3968
2023-03-12T07:38:21.000Z,4864
2023-03-12T07:39:38.000Z,4956
2023-03-12T07:40:54.000Z,5036
2023-03-12T07:42:09.000Z,5144
2023-03-12T07:43:25.000Z,5144
2023-03-12T07:44:41.000Z,4628
2023-03-12T07:45:58.000Z,4380
2023-03-12T07:47:14.000Z,4272
2023-03-12T07:48:30.000Z,3952
2023-03-12T07:49:46.000Z,3672
2023-03-12T07:51:02.000Z,3640
2023-03-12T07:52:18.000Z,3728
2023-03-12T07:53:35.000Z,4104
2023-03-12T07:54:51.000Z,4752
2023-03-12T07:56:07.000Z,5488
2023-03-12T07:57:23.000Z,5820
2023-03-12T07:58:38.000Z,5572
2023-03-12T07:59:55.000Z,4832
2023-03-12T08:01:11.000Z,4664
2023-03-12T08:02:27.000Z,4968
2023-03-12T08:03:43.000Z,4740
2023-03-12T08:04:59.000Z,4248
2023-03-12T08:06:16.000Z,3556
2023-03-12T08:07:32.000Z,3208
2023-03-12T08:08:48.000Z,3312
2023-03-12T08:10:04.000Z,3596
2023-03-12T08:11:20.000Z,3728
2023-03-12T08:12:37.000Z,3948
2023-03-12T08:13:53.000Z,4148
2023-03-12T08:15:08.000Z,4684
2023-03-12T08:16:24.000Z,5340
2023-03-12T08:17:40.000Z,5160
2023-03-12T08:18:57.000Z,5288
2023-03-12T08:20:13.000Z,6404
2023-03-12T08:21:29.000Z,7068
2023-03-12T08:22:45.000Z,6592
2023-03-12T08:24:01.000Z,4980
2023-03-12T08:25:17.000Z,3868
2023-03-12T08:26:34.000Z,3256
2023-03-12T08:27:50.000Z,2848
2023-03-12T08:29:06.000Z,2780
2023-03-12T08:30:22.000Z,3108
2023-03-12T08:31:37.000Z,3756
2023-03-12T08:32:54.000Z,4744
2023-03-12T08:34:10.000Z,5788
2023-03-12T08:35:26.000Z,6512
2023-03-12T08:36:42.000Z,6356
2023-03-12T08:37:58.000Z,6156
2023-03-12T08:39:15.000Z,6772
2023-03-12T08:40:31.000Z,6996
2023-03-12T08:41:47.000Z,6192
2023-03-12T08:43:03.000Z,5496
2023-03-12T08:44:19.000Z,5072
2023-03-12T08:45:36.000Z,4760
2023-03-12T08:46:52.000Z,3968
2023-03-12T08:48:07.000Z,3144
2023-03-12T08:49:23.000Z,2924
2023-03-12T08:50:39.000Z,3084
2023-03-12T08:51:56.000Z,3460
2023-03-12T08:53:12.000Z,3912
2023-03-12T08:54:28.000Z,4576
2023-03-12T08:55:44.000Z,5364
2023-03-12T08:57:00.000Z,5804
2023-03-12T08:58:16.000Z,5828
2023-03-12T08:59:33.000Z,5248
2023-03-12T09:00:49.000Z,4472
2023-03-12T09:02:05.000Z,4128
2023-03-12T09:03:21.000Z,4128
2023-03-12T09:04:36.000Z,4124
2023-03-12T09:05:53.000Z,3864
2023-03-12T09:07:09.000Z,3724
2023-03-12T09:08:25.000Z,3548
2023-03-12T09:09:41.000Z,3232
2023-03-12T09:10:57.000Z,3468
2023-03-12T09:12:14.000Z,3728
2023-03-12T09:13:30.000Z,3944
2023-03-12T09:14:46.000Z,4384
2023-03-12T09:16:02.000Z,4620
2023-03-12T09:17:18.000Z,4740
2023-03-12T09:18:35.000Z,4768
2023-03-12T09:19:51.000Z,4584
2023-03-12T09:21:06.000Z,4616
2023-03-12T09:22:22.000Z,5032
2023-03-12T09:23:38.000Z,5300
2023-03-12T09:24:55.000Z,5076
2023-03-12T09:26:11.000Z,4784
2023-03-12T09:27:27.000Z,4548
2023-03-12T09:28:43.000Z,4756
2023-03-12T09:29:59.000Z,5296
2023-03-12T09:31:15.000Z,5600
2023-03-12T09:32:32.000Z,5468
2023-03-12T09:33:48.000Z,5648
2023-03-12T09:35:04.000Z,5400
2023-03-12T09:36:20.000Z,4824
2023-03-12T09:37:35.000Z,4544
2023-03-12T09:38:52.000Z,4788
2023-03-12T09:40:08.000Z,4800
2023-03-12T09:41:24.000Z,4636
2023-03-12T09:42:40.000Z,4680
2023-03-12T09:43:56.000Z,4728
2023-03-12T09:45:13.000Z,4796
2023-03-12T09:46:29.000Z,5120
2023-03-12T09:47:45.000Z,5264
2023-03-12T09:49:01.000Z,5396
2023-03-12T09:50:17.000Z,5612
2023-03-12T09:51:33.000Z,5688
2023-03-12T09:52:50.000Z,6036
2023-03-12T09:54:06.000Z,6016
2023-03-12T09:55:22.000Z,5800
2023-03-12T09:56:37.000Z,5864
2023-03-12T09:57:53.000Z,6164
2023-03-12T09:59:10.000Z,5932
2023-03-12T10:00:26.000Z,5308
2023-03-12T10:01:42.000Z,5128
2023-03-12T10:02:58.000Z,5092
2023-03-12T10:04:14.000Z,4584
2023-03-12T10:05:31.000Z,4652
2023-03-12T10:06:47.000Z,4904
2023-03-12T10:08:03.000Z,4664
2023-03-12T10:09:19.000Z,4296
2023-03-12T10:10:35.000Z,4152
2023-03-12T10:11:52.000Z,3948
2023-03-12T10:13:07.000Z,4100
2023-03-12T10:14:23.000Z,4176
2023-03-12T10:15:39.000Z,4048
2023-03-12T10:16:55.000Z,4200
2023-03-12T10:18:12.000Z,4352
2023-03-12T10:19:28.000Z,4564
2023-03-12T10:20:44.000Z,4668
2023-03-12T10:22:00.000Z,5004
2023-03-12T10:23:16.000Z,4548
2023-03-12T10:24:32.000Z,4564
2023-03-12T10:25:49.000Z,4644
2023-03-12T10:27:05.000Z,4564
2023-03-12T10:28:21.000Z,3964
2023-03-12T10:29:36.000Z,3904
2023-03-12T10:30:52.000Z,3996
2023-03-12T10:32:09.000Z,4056
2023-03-12T10:33:25.000Z,4284
2023-03-12T10:34:40.000Z,4360
2023-03-12T10:35:56.000Z,4448
2023-03-12T10:37:12.000Z,4720
2023-03-12T10:38:29.000Z,5120
2023-03-12T10:39:45.000Z,5448
2023-03-12T10:41:01.000Z,6144
2023-03-12T10:42:17.000Z,6320
2023-03-12T10:43:33.000Z,6024
2023-03-12T10:44:50.000Z,5500
2023-03-12T10:46:06.000Z,6728
2023-03-12T10:47:22.000Z,5480
2023-03-12T10:48:38.000Z,7052
2023-03-12T10:49:54.000Z,7732
2023-03-12T10:51:09.000Z,7440
2023-03-12T10:52:26.000Z,5592
2023-03-12T10:53:42.000Z,5776
2023-03-12T10:54:58.000Z,5316
2023-03-12T10:56:14.000Z,5560
2023-03-12T10:57:30.000Z,7036
2023-03-12T10:58:47.000Z,6220
2023-03-12T11:00:03.000Z,4972
2023-03-12T11:01:19.000Z,4164
2023-03-12T11:02:35.000Z,4860
2023-03-12T11:03:51.000Z,4960
2023-03-12T11:05:08.000Z,5940
2023-03-12T11:06:24.000Z,5456
2023-03-12T11:07:39.000Z,4708
2023-03-12T11:08:55.000Z,3424
2023-03-12T11:10:11.000Z,3056
2023-03-12T11:11:28.000Z,3160
2023-03-12T11:12:44.000Z,3148
2023-03-12T11:14:00.000Z,3440
2023-03-12T11:15:16.000Z,3384
2023-03-12T11:16:32.000Z,3800
2023-03-12T11:17:48.000Z,4348
2023-03-12T11:19:05.000Z,4028
2023-03-12T11:20:21.000Z,4764
2023-03-12T11:21:37.000Z,4980
2023-03-12T11:22:53.000Z,5744
2023-03-12T11:24:08.000Z,4868
2023-03-12T11:25:25.000Z,3792
2023-03-12T11:26:41.000Z,3940
2023-03-12T11:27:57.000Z,4112
2023-03-12T11:29:13.000Z,4536
2023-03-12T11:30:29.000Z,5464
2023-03-12T11:31:46.000Z,6712
2023-03-12T11:33:02.000Z,6064
2023-03-12T11:34:18.000Z,6040
2023-03-12T11:35:34.000Z,7880
2023-03-12T11:36:50.000Z,8876
2023-03-12T11:38:07.000Z,8896
2023-03-12T11:39:23.000Z,7220
2023-03-12T11:40:38.000Z,8228
2023-03-12T11:41:54.000Z,8052
2023-03-12T11:43:10.000Z,9784
2023-03-12T11:44:26.000Z,9236
2023-03-12T11:45:43.000Z,8936
2023-03-12T11:46:59.000Z,7536
2023-03-12T11:48:15.000Z,6360
2023-03-12T11:49:31.000Z,6228
2023-03-12T11:50:47.000Z,6660
2023-03-12T11:52:04.000Z,6816
2023-03-12T11:53:20.000Z,7660
2023-03-12T11:54:36.000Z,7480
2023-03-12T11:55:52.000Z,7304
2023-03-12T11:57:07.000Z,6204
2023-03-12T11:58:24.000Z,6512
2023-03-12T11:59:40.000Z,6412
2023-03-12T12:00:56.000Z,5744
2023-03-12T12:02:12.000Z,5268
2023-03-12T12:03:28.000Z,6336
2023-03-12T12:04:45.000Z,7124
2023-03-12T12:06:01.000Z,7768
2023-03-12T12:07:17.000Z,7896
2023-03-12T12:08:33.000Z,6092
2023-03-12T12:09:49.000Z,6512
2023-03-12T12:11:05.000Z,6764
2023-03-12T12:12:22.000Z,5080
2023-03-12T12:13:37.000Z,6488
2023-03-12T12:14:53.000Z,6104
2023-03-12T12:16:09.000Z,7464
2023-03-12T12:17:25.000Z,9112
2023-03-12T12:18:42.000Z,13968
2023-03-12T12:19:58.000Z,9292
2023-03-12T12:21:14.000Z,6592
2023-03-12T12:22:30.000Z,4924
2023-03-12T12:23:46.000Z,5136
2023-03-12T12:25:03.000Z,5336
2023-03-12T12:26:19.000Z,4812
2023-03-12T12:27:35.000Z,5112
2023-03-12T12:28:51.000Z,5460
2023-03-12T12:30:06.000Z,4852
2023-03-12T12:31:23.000Z,4520
2023-03-12T12:32:39.000Z,4848
2023-03-12T12:33:55.000Z,5376
2023-03-12T12:35:11.000Z,4964
2023-03-12T12:36:27.000Z,4972
2023-03-12T12:37:43.000Z,5156
2023-03-12T12:39:00.000Z,5628
2023-03-12T12:40:16.000Z,7148
2023-03-12T12:41:32.000Z,6608
2023-03-12T12:42:48.000Z,6632
2023-03-12T12:44:04.000Z,6272
2023-03-12T12:45:21.000Z,6672
2023-03-12T12:46:36.000Z,5808
2023-03-12T12:47:52.000Z,5860
2023-03-12T12:49:08.000Z,7112
2023-03-12T12:50:24.000Z,8840
2023-03-12T12:51:41.000Z,7652
2023-03-12T12:52:57.000Z,6272
2023-03-12T12:54:13.000Z,5848
2023-03-12T12:55:29.000Z,4884
2023-03-12T12:56:45.000Z,5396
2023-03-12T12:58:02.000Z,6264
2023-03-12T12:59:18.000Z,5260
2023-03-12T13:00:34.000Z,5068
2023-03-12T13:01:50.000Z,5756
2023-03-12T13:03:05.000Z,6624
2023-03-12T13:04:21.000Z,5956
2023-03-12T13:05:38.000Z,7628
2023-03-12T13:06:54.000Z,6268
2023-03-12T13:08:10.000Z,6348
2023-03-12T13:09:26.000Z,6852
2023-03-12T13:10:42.000Z,5504
2023-03-12T13:11:59.000Z,5552
2023-03-12T13:13:15.000Z,5228
2023-03-12T13:14:31.000Z,5228
2023-03-12T13:15:47.000Z,3932
2023-03-12T13:17:03.000Z,3352
2023-03-12T13:18:20.000Z,4288
2023-03-12T13:19:35.000Z,4700
2023-03-12T13:20:51.000Z,4872
2023-03-12T13:22:07.000Z,5220
2023-03-12T13:23:23.000Z,4596
2023-03-12T13:24:40.000Z,5688
2023-03-12T13:25:56.000Z,5088
2023-03-12T13:27:12.000Z,4588
2023-03-12T13:28:28.000Z,4168
2023-03-12T13:29:44.000Z,4176
2023-03-12T13:31:00.000Z,4256
2023-03-12T13:32:17.000Z,3952
2023-03-12T13:33:33.000Z,3856
2023-03-12T13:34:49.000Z,4432
2023-03-12T13:36:04.000Z,4592
2023-03-12T13:37:20.000Z,4716
2023-03-12T13:38:37.000Z,4560
2023-03-12T13:39:53.000Z,4196
2023-03-12T13:41:09.000Z,4360
2023-03-12T13:42:25.000Z,4792
2023-03-12T13:43:41.000Z,4188
2023-03-12T13:44:58.000Z,3988
2023-03-12T13:46:14.000Z,4868
2023-03-12T13:47:30.000Z,5516
2023-03-12T13:48:46.000Z,5316
2023-03-12T13:50:02.000Z,5108
2023-03-12T13:51:19.000Z,5116
2023-03-12T13:52:34.000Z,5536
2023-03-12T13:53:50.000Z,5556
2023-03-12T13:55:06.000Z,5052
2023-03-12T13:56:22.000Z,4396
2023-03-12T13:57:38.000Z,4348
2023-03-12T13:58:55.000Z,4796
2023-03-12T14:00:11.000Z,4972
2023-03-12T14:01:27.000Z,4732
2023-03-12T14:02:43.000Z,4236
2023-03-12T14:03:59.000Z,4164
2023-03-12T14:05:16.000Z,4012
2023-03-12T14:06:32.000Z,3204
2023-03-12T14:07:48.000Z,3208
2023-03-12T14:09:04.000Z,3392
2023-03-12T14:10:20.000Z,4184
2023-03-12T14:11:37.000Z,4060
2023-03-12T14:12:53.000Z,3332
2023-03-12T14:14:09.000Z,3000
2023-03-12T14:15:25.000Z,4032
2023-03-12T14:16:41.000Z,4296
2023-03-12T14:17:58.000Z,6104
2023-03-12T14:19:14.000Z,6848
2023-03-12T14:20:30.000Z,7280
2023-03-12T14:21:46.000Z,6652
2023-03-12T14:23:02.000Z,6520
2023-03-12T14:24:19.000Z,6244
2023-03-12T14:25:34.000Z,5468
2023-03-12T14:26:50.000Z,5884
2023-03-12T14:28:06.000Z,7780
2023-03-12T14:29:22.000Z,7312
2023-03-12T14:30:39.000Z,7584
2023-03-12T14:31:55.000Z,7556
2023-03-12T14:33:11.000Z,8452
2023-03-12T14:34:27.000Z,7308
2023-03-12T14:35:43.000Z,6992
2023-03-12T14:36:59.000Z,6632
2023-03-12T14:38:16.000Z,6100
2023-03-12T14:39:32.000Z,6228
2023-03-12T14:40:48.000Z,5908
2023-03-12T14:42:03.000Z,5944
2023-03-12T14:43:19.000Z,6064
2023-03-12T14:44:36.000Z,5660
2023-03-12T14:45:52.000Z,5204
2023-03-12T14:47:08.000Z,5372
2023-03-12T14:48:24.000Z,5240
2023-03-12T14:49:39.000Z,5500
2023-03-12T14:50:56.000Z,5332
2023-03-12T14:52:12.000Z,5288
2023-03-12T14:53:28.000Z,5752
2023-03-12T14:54:44.000Z,5840
2023-03-12T14:56:00.000Z,5600
2023-03-12T14:57:17.000Z,5368
2023-03-12T14:58:33.000Z,4672
2023-03-12T14:59:49.000Z,4632
2023-03-12T15:01:05.000Z,5672
2023-03-12T15:02:21.000Z,5908
2023-03-12T15:03:37.000Z,5772
2023-03-12T15:04:54.000Z,4356
2023-03-12T15:06:09.000Z,5240
2023-03-12T15:07:25.000Z,5496
2023-03-12T15:08:41.000Z,5624
2023-03-12T15:09:57.000Z,6204
2023-03-12T15:11:14.000Z,6364
2023-03-12T15:12:30.000Z,5676
2023-03-12T15:13:46.000Z,5412
2023-03-12T15:15:02.000Z,6032
2023-03-12T15:16:18.000Z,6328
2023-03-12T15:17:35.000Z,5524
2023-03-12T15:18:51.000Z,4680
2023-03-12T15:20:07.000Z,4508
2023-03-12T15:21:23.000Z,4424
2023-03-12T15:22:38.000Z,4356
2023-03-12T15:23:55.000Z,4328
2023-03-12T15:25:11.000Z,3728
2023-03-12T15:26:27.000Z,2096
2023-03-12T15:27:43.000Z,1864
2023-03-12T15:28:59.000Z,2628
2023-03-12T15:30:15.000Z,2324
2023-03-12T15:31:32.000Z,2360
2023-03-12T15:32:48.000Z,2108
2023-03-12T15:34:04.000Z,2488
2023-03-12T15:35:20.000Z,2180
2023-03-12T15:36:36.000Z,2404
2023-03-12T15:37:53.000Z,1856
2023-03-12T15:39:08.000Z,1772
2023-03-12T15:40:24.000Z,2600
2023-03-12T15:41:40.000Z,3120
2023-03-12T15:42:56.000Z,2884
2023-03-12T15:44:13.000Z,3748
2023-03-12T15:45:29.000Z,3668
2023-03-12T15:46:45.000Z,3820
2023-03-12T15:48:01.000Z,3276
2023-03-12T15:49:17.000Z,3584
2023-03-12T15:50:34.000Z,4380
2023-03-12T15:51:50.000Z,4256
2023-03-12T15:53:06.000Z,3972
2023-03-12T15:54:22.000Z,4156
2023-03-12T15:55:37.000Z,4156
2023-03-12T15:56:53.000Z,3932
2023-03-12T15:58:10.000Z,3924
2023-03-12T15:59:26.000Z,3620
2023-03-12T16:00:42.000Z,3544
2023-03-12T16:01:58.000Z,3564
2023-03-12T16:03:14.000Z,3620
2023-03-12T16:04:31.000Z,3476
2023-03-12T16:05:47.000Z,3028
2023-03-12T16:07:03.000Z,2620
2023-03-12T16:08:19.000Z,2620
2023-03-12T16:09:35.000Z,2536
2023-03-12T16:10:52.000Z,2340
2023-03-12T16:12:07.000Z,2428
2023-03-12T16:13:23.000Z,2528
2023-03-12T16:14:39.000Z,2372
2023-03-12T16:15:55.000Z,2348
2023-03-12T16:17:12.000Z,2268
2023-03-12T16:18:28.000Z,2120
2023-03-12T16:19:44.000Z,2112
2023-03-12T16:21:00.000Z,2160
2023-03-12T16:22:16.000Z,2312
2023-03-12T16:23:32.000Z,2388
2023-03-12T16:24:49.000Z,2448
2023-03-12T16:26:05.000Z,2460
2023-03-12T16:27:21.000Z,2440
2023-03-12T16:28:36.000Z,2484
2023-03-12T16:29:52.000Z,2508
2023-03-12T16:31:09.000Z,2408
2023-03-12T16:32:25.000Z,2220
2023-03-12T16:33:41.000Z,1972
2023-03-12T16:34:57.000Z,1716
2023-03-12T16:36:13.000Z,1588
2023-03-12T16:37:30.000Z,1524
2023-03-12T16:38:46.000Z,1628
2023-03-12T16:40:02.000Z,1536
2023-03-12T16:41:18.000Z,1280
2023-03-12T16:42:34.000Z,1124
2023-03-12T16:43:51.000Z,1012
2023-03-12T16:45:06.000Z,988
2023-03-12T16:46:22.000Z,992
2023-03-12T16:47:38.000Z,1136
2023-03-12T16:48:54.000Z,1040
2023-03-12T16:50:10.000Z,848
2023-03-12T16:51:27.000Z,760
2023-03-12T16:52:43.000Z,580
2023-03-12T16:53:59.000Z,608
2023-03-12T16:55:15.000Z,732
2023-03-12T16:56:31.000Z,776
2023-03-12T16:57:48.000Z,852
2023-03-12T16:59:04.000Z,848
2023-03-12T17:00:20.000Z,832
2023-03-12T17:01:35.000Z,780
2023-03-12T17:02:51.000Z,648
2023-03-12T17:04:08.000Z,532
2023-03-12T17:05:24.000Z,416
2023-03-12T17:06:40.000Z,260
2023-03-12T17:07:56.000Z,184
2023-03-12T17:09:12.000Z,264
2023-03-12T17:10:29.000Z,288
2023-03-12T17:11:45.000Z,268
2023-03-12T17:13:01.000Z,220
2023-03-12T17:14:17.000Z,168
2023-03-12T17:15:33.000Z,156
2023-03-12T17:16:49.000Z,164
2023-03-12T17:18:05.000Z,116
2023-03-12T17:19:21.000Z,64
2023-03-12T17:20:37.000Z,56
2023-03-12T17:21:53.000Z,56
2023-03-12T17:23:09.000Z,64
2023-03-12T17:24:26.000Z,68
2023-03-12T17:25:42.000Z,56
2023-03-12T17:26:58.000Z,52
2023-03-12T17:28:14.000Z,64
2023-03-12T17:29:30.000Z,64